sensor_id;sensor_type;location;lat;lon;timestamp;temperature;humidity
38973;DHT22;25333;50.762;4.470;2023-08-21T00:00:44;19.10;99.90
38973;DHT22;25333;50.762;4.470;2023-08-21T00:03:10;19.20;99.90
38973;DHT22;25333;50.762;4.470;2023-08-21T00:05:36;19.30;99.90
38973;DHT22;25333;50.762;4.470;2023-08-21T00:08:01;19.20;99.90
38973;DHT22;25333;50.762;4.470;2023-08-21T00:10:27;19.20;99.90
38973;DHT22;25333;50.762;4.470;2023-08-21T00:12:52;19.20;99.90
38973;DHT22;25333;50.762;4.470;2023-08-21T00:15:18;19.00;99.90
38973;DHT22;25333;50.762;4.470;2023-08-21T00:17:44;18.90;99.90
38973;DHT22;25333;50.762;4.470;2023-08-21T00:20:10;18.90;99.90
38973;DHT22;25333;50.762;4.470;2023-08-21T00:22:36;19.00;99.90
38973;DHT22;25333;50.762;4.470;2023-08-21T00:25:03;19.00;99.90
38973;DHT22;25333;50.762;4.470;2023-08-21T00:27:29;19.00;99.90
38973;DHT22;25333;50.762;4.470;2023-08-21T00:29:55;19.00;99.90
38973;DHT22;25333;50.762;4.470;2023-08-21T00:32:21;18.90;99.90
38973;DHT22;25333;50.762;4.470;2023-08-21T00:34:47;18.70;99.90
38973;DHT22;25333;50.762;4.470;2023-08-21T00:37:12;18.60;99.90
38973;DHT22;25333;50.762;4.470;2023-08-21T00:39:38;18.60;99.90
38973;DHT22;25333;50.762;4.470;2023-08-21T00:42:04;18.70;99.90
38973;DHT22;25333;50.762;4.470;2023-08-21T00:44:30;18.70;99.90
38973;DHT22;25333;50.762;4.470;2023-08-21T00:46:56;18.80;99.90
38973;DHT22;25333;50.762;4.470;2023-08-21T00:49:21;18.70;99.90
38973;DHT22;25333;50.762;4.470;2023-08-21T00:51:48;18.70;99.90
38973;DHT22;25333;50.762;4.470;2023-08-21T00:54:15;18.70;99.90
38973;DHT22;25333;50.762;4.470;2023-08-21T00:56:41;18.70;99.90
38973;DHT22;25333;50.762;4.470;2023-08-21T00:59:07;18.80;99.90
38973;DHT22;25333;50.762;4.470;2023-08-21T01:01:33;18.60;99.90
38973;DHT22;25333;50.762;4.470;2023-08-21T01:04:01;18.60;99.90
38973;DHT22;25333;50.762;4.470;2023-08-21T01:06:28;18.50;99.90
38973;DHT22;25333;50.762;4.470;2023-08-21T01:09:02;18.50;99.90
38973;DHT22;25333;50.762;4.470;2023-08-21T01:14:09;18.40;99.90
38973;DHT22;25333;50.762;4.470;2023-08-21T01:16:37;18.50;99.90
38973;DHT22;25333;50.762;4.470;2023-08-21T01:19:04;18.50;99.90
38973;DHT22;25333;50.762;4.470;2023-08-21T01:21:33;18.60;99.90
38973;DHT22;25333;50.762;4.470;2023-08-21T01:23:59;18.60;99.90
38973;DHT22;25333;50.762;4.470;2023-08-21T01:26:25;18.60;99.90
38973;DHT22;25333;50.762;4.470;2023-08-21T01:28:50;18.40;99.90
38973;DHT22;25333;50.762;4.470;2023-08-21T01:31:27;18.30;99.90
38973;DHT22;25333;50.762;4.470;2023-08-21T01:33:59;18.30;99.90
38973;DHT22;25333;50.762;4.470;2023-08-21T01:36:25;18.30;99.90
38973;DHT22;25333;50.762;4.470;2023-08-21T01:38:51;18.30;99.90
38973;DHT22;25333;50.762;4.470;2023-08-21T01:41:17;18.10;99.90
38973;DHT22;25333;50.762;4.470;2023-08-21T01:43:43;18.00;99.90
38973;DHT22;25333;50.762;4.470;2023-08-21T01:46:09;18.10;99.90
38973;DHT22;25333;50.762;4.470;2023-08-21T01:48:34;18.20;99.90
38973;DHT22;25333;50.762;4.470;2023-08-21T01:51:01;18.20;99.90
38973;DHT22;25333;50.762;4.470;2023-08-21T01:53:27;18.10;99.90
38973;DHT22;25333;50.762;4.470;2023-08-21T01:55:53;18.10;99.90
38973;DHT22;25333;50.762;4.470;2023-08-21T01:58:19;18.20;99.90
38973;DHT22;25333;50.762;4.470;2023-08-21T02:00:47;18.30;99.90
38973;DHT22;25333;50.762;4.470;2023-08-21T02:03:13;18.20;99.90
38973;DHT22;25333;50.762;4.470;2023-08-21T02:05:40;18.10;99.90
38973;DHT22;25333;50.762;4.470;2023-08-21T02:08:12;17.90;99.90
38973;DHT22;25333;50.762;4.470;2023-08-21T02:10:38;17.80;99.90
38973;DHT22;25333;50.762;4.470;2023-08-21T02:13:11;17.80;99.90
38973;DHT22;25333;50.762;4.470;2023-08-21T02:15:38;18.00;99.90
38973;DHT22;25333;50.762;4.470;2023-08-21T02:18:04;17.90;99.90
38973;DHT22;25333;50.762;4.470;2023-08-21T02:20:30;17.90;99.90
38973;DHT22;25333;50.762;4.470;2023-08-21T02:22:55;17.80;99.90
38973;DHT22;25333;50.762;4.470;2023-08-21T02:25:21;17.60;99.90
38973;DHT22;25333;50.762;4.470;2023-08-21T02:27:47;17.60;99.90
38973;DHT22;25333;50.762;4.470;2023-08-21T02:30:13;17.70;99.90
38973;DHT22;25333;50.762;4.470;2023-08-21T02:32:38;17.80;99.90
38973;DHT22;25333;50.762;4.470;2023-08-21T02:35:06;17.80;99.90
38973;DHT22;25333;50.762;4.470;2023-08-21T02:37:32;17.80;99.90
38973;DHT22;25333;50.762;4.470;2023-08-21T02:39:58;17.70;99.90
38973;DHT22;25333;50.762;4.470;2023-08-21T02:42:25;17.70;99.90
38973;DHT22;25333;50.762;4.470;2023-08-21T02:44:51;17.80;99.90
38973;DHT22;25333;50.762;4.470;2023-08-21T02:47:16;17.70;99.90
38973;DHT22;25333;50.762;4.470;2023-08-21T02:49:42;17.80;99.90
38973;DHT22;25333;50.762;4.470;2023-08-21T02:52:08;17.90;99.90
38973;DHT22;25333;50.762;4.470;2023-08-21T02:54:33;17.90;99.90
38973;DHT22;25333;50.762;4.470;2023-08-21T02:56:59;17.90;99.90
38973;DHT22;25333;50.762;4.470;2023-08-21T02:59:25;17.70;99.90
38973;DHT22;25333;50.762;4.470;2023-08-21T03:01:50;17.60;99.90
38973;DHT22;25333;50.762;4.470;2023-08-21T03:04:16;17.50;99.90
38973;DHT22;25333;50.762;4.470;2023-08-21T03:06:42;17.60;99.90
38973;DHT22;25333;50.762;4.470;2023-08-21T03:09:07;17.70;99.90
38973;DHT22;25333;50.762;4.470;2023-08-21T03:11:33;17.70;99.90
38973;DHT22;25333;50.762;4.470;2023-08-21T03:13:59;17.70;99.90
38973;DHT22;25333;50.762;4.470;2023-08-21T03:16:24;17.70;99.90
38973;DHT22;25333;50.762;4.470;2023-08-21T03:19:00;17.60;99.90
38973;DHT22;25333;50.762;4.470;2023-08-21T03:21:26;17.50;99.90
38973;DHT22;25333;50.762;4.470;2023-08-21T03:23:57;17.50;99.90
38973;DHT22;25333;50.762;4.470;2023-08-21T03:26:23;17.50;99.90
38973;DHT22;25333;50.762;4.470;2023-08-21T03:28:49;17.50;99.90
38973;DHT22;25333;50.762;4.470;2023-08-21T03:31:15;17.50;99.90
38973;DHT22;25333;50.762;4.470;2023-08-21T03:33:41;17.50;99.90
38973;DHT22;25333;50.762;4.470;2023-08-21T03:36:06;17.40;99.90
38973;DHT22;25333;50.762;4.470;2023-08-21T03:38:32;17.50;99.90
38973;DHT22;25333;50.762;4.470;2023-08-21T03:40:59;17.50;99.90
38973;DHT22;25333;50.762;4.470;2023-08-21T03:43:25;17.40;99.90
38973;DHT22;25333;50.762;4.470;2023-08-21T03:45:51;17.30;99.90
38973;DHT22;25333;50.762;4.470;2023-08-21T03:48:16;17.30;99.90
38973;DHT22;25333;50.762;4.470;2023-08-21T03:50:42;17.20;99.90
38973;DHT22;25333;50.762;4.470;2023-08-21T03:53:08;17.20;99.90
38973;DHT22;25333;50.762;4.470;2023-08-21T03:55:33;17.20;99.90
38973;DHT22;25333;50.762;4.470;2023-08-21T03:58:00;17.30;99.90
38973;DHT22;25333;50.762;4.470;2023-08-21T04:00:25;17.30;99.90
38973;DHT22;25333;50.762;4.470;2023-08-21T04:02:51;17.30;99.90
38973;DHT22;25333;50.762;4.470;2023-08-21T04:05:17;17.20;99.90
38973;DHT22;25333;50.762;4.470;2023-08-21T04:07:42;17.10;99.90
38973;DHT22;25333;50.762;4.470;2023-08-21T04:10:08;17.00;99.90
38973;DHT22;25333;50.762;4.470;2023-08-21T04:12:34;17.10;99.90
38973;DHT22;25333;50.762;4.470;2023-08-21T04:15:00;17.10;99.90
38973;DHT22;25333;50.762;4.470;2023-08-21T04:17:25;17.10;99.90
38973;DHT22;25333;50.762;4.470;2023-08-21T04:19:51;17.00;99.90
38973;DHT22;25333;50.762;4.470;2023-08-21T04:22:17;17.00;99.90
38973;DHT22;25333;50.762;4.470;2023-08-21T04:24:43;16.90;99.90
38973;DHT22;25333;50.762;4.470;2023-08-21T04:27:08;16.90;99.90
38973;DHT22;25333;50.762;4.470;2023-08-21T04:29:38;16.90;99.90
38973;DHT22;25333;50.762;4.470;2023-08-21T04:32:04;16.90;99.90
38973;DHT22;25333;50.762;4.470;2023-08-21T04:34:30;16.90;99.90
38973;DHT22;25333;50.762;4.470;2023-08-21T04:36:57;16.90;99.90
38973;DHT22;25333;50.762;4.470;2023-08-21T04:39:22;16.90;99.90
38973;DHT22;25333;50.762;4.470;2023-08-21T04:41:48;16.90;99.90
38973;DHT22;25333;50.762;4.470;2023-08-21T04:44:14;17.00;99.90
38973;DHT22;25333;50.762;4.470;2023-08-21T04:46:39;17.00;99.90
38973;DHT22;25333;50.762;4.470;2023-08-21T04:49:05;17.00;99.90
38973;DHT22;25333;50.762;4.470;2023-08-21T04:51:31;16.80;99.90
38973;DHT22;25333;50.762;4.470;2023-08-21T04:53:57;16.70;99.90
38973;DHT22;25333;50.762;4.470;2023-08-21T04:56:24;16.70;99.90
38973;DHT22;25333;50.762;4.470;2023-08-21T04:58:50;16.80;99.90
38973;DHT22;25333;50.762;4.470;2023-08-21T05:01:16;16.80;99.90
38973;DHT22;25333;50.762;4.470;2023-08-21T05:03:42;16.80;99.90
38973;DHT22;25333;50.762;4.470;2023-08-21T05:06:07;16.80;99.90
38973;DHT22;25333;50.762;4.470;2023-08-21T05:08:33;16.80;99.90
38973;DHT22;25333;50.762;4.470;2023-08-21T05:11:00;16.90;99.90
38973;DHT22;25333;50.762;4.470;2023-08-21T05:13:26;17.00;99.90
38973;DHT22;25333;50.762;4.470;2023-08-21T05:15:57;16.90;99.90
38973;DHT22;25333;50.762;4.470;2023-08-21T05:18:24;17.00;99.90
38973;DHT22;25333;50.762;4.470;2023-08-21T05:20:50;17.00;99.90
38973;DHT22;25333;50.762;4.470;2023-08-21T05:23:16;16.90;99.90
38973;DHT22;25333;50.762;4.470;2023-08-21T05:25:46;16.90;99.90
38973;DHT22;25333;50.762;4.470;2023-08-21T05:28:12;16.90;99.90
38973;DHT22;25333;50.762;4.470;2023-08-21T05:30:38;17.00;99.90
38973;DHT22;25333;50.762;4.470;2023-08-21T05:33:03;17.10;99.90
38973;DHT22;25333;50.762;4.470;2023-08-21T05:35:33;17.10;99.90
38973;DHT22;25333;50.762;4.470;2023-08-21T05:38:00;17.00;99.90
38973;DHT22;25333;50.762;4.470;2023-08-21T05:40:25;17.00;99.90
38973;DHT22;25333;50.762;4.470;2023-08-21T05:42:51;17.00;99.90
38973;DHT22;25333;50.762;4.470;2023-08-21T05:45:17;17.10;99.90
38973;DHT22;25333;50.762;4.470;2023-08-21T05:47:42;17.10;99.90
38973;DHT22;25333;50.762;4.470;2023-08-21T05:50:08;17.10;99.90
38973;DHT22;25333;50.762;4.470;2023-08-21T05:52:34;17.10;99.90
38973;DHT22;25333;50.762;4.470;2023-08-21T05:55:00;17.20;99.90
38973;DHT22;25333;50.762;4.470;2023-08-21T05:57:25;17.20;99.90
38973;DHT22;25333;50.762;4.470;2023-08-21T05:59:51;17.30;99.90
38973;DHT22;25333;50.762;4.470;2023-08-21T06:02:16;17.40;99.90
38973;DHT22;25333;50.762;4.470;2023-08-21T06:04:42;17.50;99.90
38973;DHT22;25333;50.762;4.470;2023-08-21T06:07:09;17.70;99.90
38973;DHT22;25333;50.762;4.470;2023-08-21T06:09:35;17.80;99.90
38973;DHT22;25333;50.762;4.470;2023-08-21T06:12:02;17.80;99.90
38973;DHT22;25333;50.762;4.470;2023-08-21T06:14:28;17.90;99.90
38973;DHT22;25333;50.762;4.470;2023-08-21T06:17:00;18.00;99.90
38973;DHT22;25333;50.762;4.470;2023-08-21T06:19:27;18.00;99.90
38973;DHT22;25333;50.762;4.470;2023-08-21T06:21:54;18.10;99.90
38973;DHT22;25333;50.762;4.470;2023-08-21T06:24:19;18.20;99.90
38973;DHT22;25333;50.762;4.470;2023-08-21T06:26:45;18.30;99.90
38973;DHT22;25333;50.762;4.470;2023-08-21T06:29:11;18.50;99.90
38973;DHT22;25333;50.762;4.470;2023-08-21T06:31:36;18.60;99.90
38973;DHT22;25333;50.762;4.470;2023-08-21T06:34:02;18.70;99.90
38973;DHT22;25333;50.762;4.470;2023-08-21T06:36:27;18.90;99.90
38973;DHT22;25333;50.762;4.470;2023-08-21T06:38:54;18.90;99.90
38973;DHT22;25333;50.762;4.470;2023-08-21T06:41:20;19.00;99.90
38973;DHT22;25333;50.762;4.470;2023-08-21T06:43:45;19.20;99.90
38973;DHT22;25333;50.762;4.470;2023-08-21T06:46:11;19.20;99.90
38973;DHT22;25333;50.762;4.470;2023-08-21T06:48:39;19.30;99.90
38973;DHT22;25333;50.762;4.470;2023-08-21T06:51:07;19.50;99.90
38973;DHT22;25333;50.762;4.470;2023-08-21T06:53:34;19.70;99.90
38973;DHT22;25333;50.762;4.470;2023-08-21T06:56:00;19.80;99.90
38973;DHT22;25333;50.762;4.470;2023-08-21T06:58:25;19.80;99.90
38973;DHT22;25333;50.762;4.470;2023-08-21T07:00:53;19.90;99.90
38973;DHT22;25333;50.762;4.470;2023-08-21T07:03:19;19.90;99.90
38973;DHT22;25333;50.762;4.470;2023-08-21T07:05:55;19.90;99.90
38973;DHT22;25333;50.762;4.470;2023-08-21T07:08:25;20.00;99.90
38973;DHT22;25333;50.762;4.470;2023-08-21T07:10:51;20.10;99.90
38973;DHT22;25333;50.762;4.470;2023-08-21T07:13:18;20.00;99.90
38973;DHT22;25333;50.762;4.470;2023-08-21T07:15:43;20.00;99.90
38973;DHT22;25333;50.762;4.470;2023-08-21T07:18:09;20.00;99.90
38973;DHT22;25333;50.762;4.470;2023-08-21T07:20:35;20.00;99.90
38973;DHT22;25333;50.762;4.470;2023-08-21T07:23:01;20.00;99.90
38973;DHT22;25333;50.762;4.470;2023-08-21T07:25:26;20.30;99.90
38973;DHT22;25333;50.762;4.470;2023-08-21T07:27:54;20.40;99.90
38973;DHT22;25333;50.762;4.470;2023-08-21T07:30:19;20.70;99.90
38973;DHT22;25333;50.762;4.470;2023-08-21T07:32:46;20.60;99.90
38973;DHT22;25333;50.762;4.470;2023-08-21T07:35:11;20.50;99.90
38973;DHT22;25333;50.762;4.470;2023-08-21T07:37:37;20.50;99.90
38973;DHT22;25333;50.762;4.470;2023-08-21T07:40:05;20.60;99.90
38973;DHT22;25333;50.762;4.470;2023-08-21T07:42:31;20.60;99.90
38973;DHT22;25333;50.762;4.470;2023-08-21T07:44:56;20.80;99.90
38973;DHT22;25333;50.762;4.470;2023-08-21T07:47:22;21.00;99.90
38973;DHT22;25333;50.762;4.470;2023-08-21T07:49:48;21.10;99.90
38973;DHT22;25333;50.762;4.470;2023-08-21T07:52:13;21.20;99.90
38973;DHT22;25333;50.762;4.470;2023-08-21T07:54:40;21.20;99.90
38973;DHT22;25333;50.762;4.470;2023-08-21T07:57:07;21.30;99.90
38973;DHT22;25333;50.762;4.470;2023-08-21T07:59:32;21.40;99.90
38973;DHT22;25333;50.762;4.470;2023-08-21T08:01:58;21.60;99.90
38973;DHT22;25333;50.762;4.470;2023-08-21T08:04:25;21.60;99.90
38973;DHT22;25333;50.762;4.470;2023-08-21T08:06:52;21.70;99.90
38973;DHT22;25333;50.762;4.470;2023-08-21T08:09:17;21.70;99.90
38973;DHT22;25333;50.762;4.470;2023-08-21T08:11:43;21.80;99.90
38973;DHT22;25333;50.762;4.470;2023-08-21T08:14:09;22.00;99.90
38973;DHT22;25333;50.762;4.470;2023-08-21T08:16:35;22.10;99.90
38973;DHT22;25333;50.762;4.470;2023-08-21T08:19:00;22.00;99.90
38973;DHT22;25333;50.762;4.470;2023-08-21T08:21:26;22.10;99.90
38973;DHT22;25333;50.762;4.470;2023-08-21T08:23:52;22.20;99.90
38973;DHT22;25333;50.762;4.470;2023-08-21T08:26:17;22.10;99.90
38973;DHT22;25333;50.762;4.470;2023-08-21T08:28:43;22.30;99.90
38973;DHT22;25333;50.762;4.470;2023-08-21T08:31:16;22.30;99.90
38973;DHT22;25333;50.762;4.470;2023-08-21T08:33:41;22.30;99.90
38973;DHT22;25333;50.762;4.470;2023-08-21T08:36:07;22.30;99.90
38973;DHT22;25333;50.762;4.470;2023-08-21T08:38:33;22.40;99.90
38973;DHT22;25333;50.762;4.470;2023-08-21T08:41:01;22.50;99.90
38973;DHT22;25333;50.762;4.470;2023-08-21T08:43:27;22.60;99.90
38973;DHT22;25333;50.762;4.470;2023-08-21T08:45:56;22.70;99.90
38973;DHT22;25333;50.762;4.470;2023-08-21T08:48:23;22.70;99.90
38973;DHT22;25333;50.762;4.470;2023-08-21T08:50:50;22.80;99.90
38973;DHT22;25333;50.762;4.470;2023-08-21T08:53:18;22.90;99.90
38973;DHT22;25333;50.762;4.470;2023-08-21T08:55:44;22.90;99.90
38973;DHT22;25333;50.762;4.470;2023-08-21T08:58:10;22.90;99.90
38973;DHT22;25333;50.762;4.470;2023-08-21T09:00:36;22.90;99.70
38973;DHT22;25333;50.762;4.470;2023-08-21T09:03:01;22.90;99.40
38973;DHT22;25333;50.762;4.470;2023-08-21T09:05:28;23.00;99.50
38973;DHT22;25333;50.762;4.470;2023-08-21T09:08:13;23.20;99.30
38973;DHT22;25333;50.762;4.470;2023-08-21T09:10:40;23.10;98.90
38973;DHT22;25333;50.762;4.470;2023-08-21T09:13:16;23.00;98.40
38973;DHT22;25333;50.762;4.470;2023-08-21T09:15:47;23.20;98.10
38973;DHT22;25333;50.762;4.470;2023-08-21T09:18:14;23.10;97.70
38973;DHT22;25333;50.762;4.470;2023-08-21T09:20:41;23.20;98.50
38973;DHT22;25333;50.762;4.470;2023-08-21T09:23:07;23.20;98.80
38973;DHT22;25333;50.762;4.470;2023-08-21T09:25:40;23.40;98.50
38973;DHT22;25333;50.762;4.470;2023-08-21T09:28:07;23.60;98.50
38973;DHT22;25333;50.762;4.470;2023-08-21T09:30:50;23.80;98.60
38973;DHT22;25333;50.762;4.470;2023-08-21T09:33:21;23.80;98.40
38973;DHT22;25333;50.762;4.470;2023-08-21T09:35:47;23.70;98.50
38973;DHT22;25333;50.762;4.470;2023-08-21T09:38:13;23.70;99.00
38973;DHT22;25333;50.762;4.470;2023-08-21T09:40:43;23.90;99.40
38973;DHT22;25333;50.762;4.470;2023-08-21T09:43:10;24.00;99.30
38973;DHT22;25333;50.762;4.470;2023-08-21T09:45:38;24.10;98.20
38973;DHT22;25333;50.762;4.470;2023-08-21T09:48:04;24.00;98.90
38973;DHT22;25333;50.762;4.470;2023-08-21T09:50:31;23.70;98.70
38973;DHT22;25333;50.762;4.470;2023-08-21T09:52:57;23.70;98.90
38973;DHT22;25333;50.762;4.470;2023-08-21T09:55:24;23.70;99.50
38973;DHT22;25333;50.762;4.470;2023-08-21T09:57:58;23.50;98.30
38973;DHT22;25333;50.762;4.470;2023-08-21T10:00:34;23.50;98.80
38973;DHT22;25333;50.762;4.470;2023-08-21T10:03:04;23.70;98.80
38973;DHT22;25333;50.762;4.470;2023-08-21T10:05:39;24.00;98.70
38973;DHT22;25333;50.762;4.470;2023-08-21T10:08:07;24.40;98.40
38973;DHT22;25333;50.762;4.470;2023-08-21T10:10:35;24.50;97.40
38973;DHT22;25333;50.762;4.470;2023-08-21T10:13:01;24.80;97.40
38973;DHT22;25333;50.762;4.470;2023-08-21T10:15:28;25.00;97.40
38973;DHT22;25333;50.762;4.470;2023-08-21T10:17:55;25.20;96.00
38973;DHT22;25333;50.762;4.470;2023-08-21T10:20:22;25.30;97.40
38973;DHT22;25333;50.762;4.470;2023-08-21T10:22:52;25.30;95.20
38973;DHT22;25333;50.762;4.470;2023-08-21T10:25:23;25.40;96.40
38973;DHT22;25333;50.762;4.470;2023-08-21T10:27:55;25.60;96.40
38973;DHT22;25333;50.762;4.470;2023-08-21T10:30:26;25.70;96.10
38973;DHT22;25333;50.762;4.470;2023-08-21T10:32:54;25.90;95.60
38973;DHT22;25333;50.762;4.470;2023-08-21T10:35:21;26.20;96.60
38973;DHT22;25333;50.762;4.470;2023-08-21T10:38:07;26.10;94.70
38973;DHT22;25333;50.762;4.470;2023-08-21T10:40:33;25.60;95.50
38973;DHT22;25333;50.762;4.470;2023-08-21T10:42:59;25.30;94.90
38973;DHT22;25333;50.762;4.470;2023-08-21T10:45:25;25.00;94.50
38973;DHT22;25333;50.762;4.470;2023-08-21T10:47:51;25.10;96.40
38973;DHT22;25333;50.762;4.470;2023-08-21T10:50:17;25.40;96.60
38973;DHT22;25333;50.762;4.470;2023-08-21T10:52:47;26.00;96.00
38973;DHT22;25333;50.762;4.470;2023-08-21T10:55:16;26.30;95.60
38973;DHT22;25333;50.762;4.470;2023-08-21T10:57:45;26.10;94.00
38973;DHT22;25333;50.762;4.470;2023-08-21T11:00:16;25.90;95.40
38973;DHT22;25333;50.762;4.470;2023-08-21T11:02:48;26.00;95.10
38973;DHT22;25333;50.762;4.470;2023-08-21T11:05:15;25.90;95.60
38973;DHT22;25333;50.762;4.470;2023-08-21T11:07:48;25.90;95.90
38973;DHT22;25333;50.762;4.470;2023-08-21T11:10:15;25.80;95.40
38973;DHT22;25333;50.762;4.470;2023-08-21T11:12:55;26.00;95.90
38973;DHT22;25333;50.762;4.470;2023-08-21T11:15:21;26.20;94.00
38973;DHT22;25333;50.762;4.470;2023-08-21T11:17:59;26.20;93.40
38973;DHT22;25333;50.762;4.470;2023-08-21T11:20:33;26.30;94.80
38973;DHT22;25333;50.762;4.470;2023-08-21T11:23:00;26.60;94.80
38973;DHT22;25333;50.762;4.470;2023-08-21T11:25:34;26.80;94.40
38973;DHT22;25333;50.762;4.470;2023-08-21T11:28:00;27.00;94.50
38973;DHT22;25333;50.762;4.470;2023-08-21T11:30:28;26.90;92.60
38973;DHT22;25333;50.762;4.470;2023-08-21T11:33:12;26.70;93.40
38973;DHT22;25333;50.762;4.470;2023-08-21T11:35:38;26.80;93.90
38973;DHT22;25333;50.762;4.470;2023-08-21T11:38:04;26.80;93.40
38973;DHT22;25333;50.762;4.470;2023-08-21T11:40:30;26.60;93.10
38973;DHT22;25333;50.762;4.470;2023-08-21T11:43:02;26.40;93.80
38973;DHT22;25333;50.762;4.470;2023-08-21T11:45:29;26.30;93.50
38973;DHT22;25333;50.762;4.470;2023-08-21T11:47:58;26.10;94.10
38973;DHT22;25333;50.762;4.470;2023-08-21T11:50:25;26.00;94.10
38973;DHT22;25333;50.762;4.470;2023-08-21T11:52:52;26.10;93.80
38973;DHT22;25333;50.762;4.470;2023-08-21T11:55:18;26.00;95.00
38973;DHT22;25333;50.762;4.470;2023-08-21T11:57:51;26.00;96.00
38973;DHT22;25333;50.762;4.470;2023-08-21T12:00:18;26.00;93.70
38973;DHT22;25333;50.762;4.470;2023-08-21T12:02:55;26.10;94.20
38973;DHT22;25333;50.762;4.470;2023-08-21T12:05:24;26.50;93.90
38973;DHT22;25333;50.762;4.470;2023-08-21T12:07:50;26.70;92.40
38973;DHT22;25333;50.762;4.470;2023-08-21T12:10:27;26.60;93.20
38973;DHT22;25333;50.762;4.470;2023-08-21T12:12:53;26.90;93.20
38973;DHT22;25333;50.762;4.470;2023-08-21T12:15:19;27.10;93.40
38973;DHT22;25333;50.762;4.470;2023-08-21T12:17:44;27.50;93.00
38973;DHT22;25333;50.762;4.470;2023-08-21T12:20:10;27.50;93.10
38973;DHT22;25333;50.762;4.470;2023-08-21T12:22:37;27.70;93.20
38973;DHT22;25333;50.762;4.470;2023-08-21T12:25:04;27.70;91.80
38973;DHT22;25333;50.762;4.470;2023-08-21T12:27:30;27.60;91.40
38973;DHT22;25333;50.762;4.470;2023-08-21T12:29:56;27.50;92.70
38973;DHT22;25333;50.762;4.470;2023-08-21T12:32:22;27.30;94.40
38973;DHT22;25333;50.762;4.470;2023-08-21T12:34:47;27.10;93.20
38973;DHT22;25333;50.762;4.470;2023-08-21T12:37:13;27.40;93.10
38973;DHT22;25333;50.762;4.470;2023-08-21T12:39:39;27.60;92.70
38973;DHT22;25333;50.762;4.470;2023-08-21T12:42:04;27.60;92.80
38973;DHT22;25333;50.762;4.470;2023-08-21T12:44:30;27.60;93.50
38973;DHT22;25333;50.762;4.470;2023-08-21T12:46:56;27.60;92.20
38973;DHT22;25333;50.762;4.470;2023-08-21T12:49:22;27.50;92.60
38973;DHT22;25333;50.762;4.470;2023-08-21T12:51:48;27.40;91.60
38973;DHT22;25333;50.762;4.470;2023-08-21T12:54:13;27.30;92.80
38973;DHT22;25333;50.762;4.470;2023-08-21T12:56:39;27.30;93.10
38973;DHT22;25333;50.762;4.470;2023-08-21T12:59:04;27.30;91.80
38973;DHT22;25333;50.762;4.470;2023-08-21T13:01:30;27.20;92.20
38973;DHT22;25333;50.762;4.470;2023-08-21T13:04:01;27.20;93.00
38973;DHT22;25333;50.762;4.470;2023-08-21T13:06:26;27.20;92.50
38973;DHT22;25333;50.762;4.470;2023-08-21T13:08:53;26.90;92.20
38973;DHT22;25333;50.762;4.470;2023-08-21T13:11:19;26.80;93.40
38973;DHT22;25333;50.762;4.470;2023-08-21T13:13:45;26.70;93.50
38973;DHT22;25333;50.762;4.470;2023-08-21T13:16:11;26.60;94.40
38973;DHT22;25333;50.762;4.470;2023-08-21T13:18:36;26.60;94.30
38973;DHT22;25333;50.762;4.470;2023-08-21T13:21:02;26.30;94.50
38973;DHT22;25333;50.762;4.470;2023-08-21T13:23:28;26.10;95.20
38973;DHT22;25333;50.762;4.470;2023-08-21T13:25:57;26.10;94.30
38973;DHT22;25333;50.762;4.470;2023-08-21T13:28:25;26.10;94.80
38973;DHT22;25333;50.762;4.470;2023-08-21T13:30:51;26.10;94.70
38973;DHT22;25333;50.762;4.470;2023-08-21T13:33:18;26.00;94.50
38973;DHT22;25333;50.762;4.470;2023-08-21T13:35:47;26.00;95.00
38973;DHT22;25333;50.762;4.470;2023-08-21T13:38:13;25.90;93.70
38973;DHT22;25333;50.762;4.470;2023-08-21T13:40:39;26.00;94.10
38973;DHT22;25333;50.762;4.470;2023-08-21T13:43:06;26.10;94.20
38973;DHT22;25333;50.762;4.470;2023-08-21T13:45:33;26.20;95.30
38973;DHT22;25333;50.762;4.470;2023-08-21T13:47:58;26.40;94.70
38973;DHT22;25333;50.762;4.470;2023-08-21T13:50:24;26.40;92.90
38973;DHT22;25333;50.762;4.470;2023-08-21T13:52:50;26.40;94.10
38973;DHT22;25333;50.762;4.470;2023-08-21T13:55:16;26.30;93.10
38973;DHT22;25333;50.762;4.470;2023-08-21T13:57:42;26.50;94.10
38973;DHT22;25333;50.762;4.470;2023-08-21T14:00:09;26.60;94.00
38973;DHT22;25333;50.762;4.470;2023-08-21T14:02:37;26.50;92.00
38973;DHT22;25333;50.762;4.470;2023-08-21T14:05:04;26.30;92.40
38973;DHT22;25333;50.762;4.470;2023-08-21T14:07:30;26.30;92.30
38973;DHT22;25333;50.762;4.470;2023-08-21T14:09:56;26.20;93.30
38973;DHT22;25333;50.762;4.470;2023-08-21T14:12:22;26.30;92.30
38973;DHT22;25333;50.762;4.470;2023-08-21T14:14:48;26.40;93.00
38973;DHT22;25333;50.762;4.470;2023-08-21T14:17:14;26.50;93.10
38973;DHT22;25333;50.762;4.470;2023-08-21T14:19:40;26.60;93.40
38973;DHT22;25333;50.762;4.470;2023-08-21T14:22:05;26.60;91.90
38973;DHT22;25333;50.762;4.470;2023-08-21T14:24:32;26.50;92.30
38973;DHT22;25333;50.762;4.470;2023-08-21T14:26:57;26.40;92.80
38973;DHT22;25333;50.762;4.470;2023-08-21T14:29:23;26.50;93.00
38973;DHT22;25333;50.762;4.470;2023-08-21T14:31:49;26.50;93.30
38973;DHT22;25333;50.762;4.470;2023-08-21T14:34:15;26.30;92.40
38973;DHT22;25333;50.762;4.470;2023-08-21T14:36:41;26.20;92.70
38973;DHT22;25333;50.762;4.470;2023-08-21T14:39:08;26.20;91.90
38973;DHT22;25333;50.762;4.470;2023-08-21T14:41:37;26.20;92.30
38973;DHT22;25333;50.762;4.470;2023-08-21T14:44:03;26.20;92.40
38973;DHT22;25333;50.762;4.470;2023-08-21T14:46:28;26.10;92.20
38973;DHT22;25333;50.762;4.470;2023-08-21T14:48:54;26.20;91.90
38973;DHT22;25333;50.762;4.470;2023-08-21T14:51:19;26.20;91.70
38973;DHT22;25333;50.762;4.470;2023-08-21T14:53:45;26.00;92.20
38973;DHT22;25333;50.762;4.470;2023-08-21T14:56:11;26.00;91.90
38973;DHT22;25333;50.762;4.470;2023-08-21T14:58:36;26.00;92.50
38973;DHT22;25333;50.762;4.470;2023-08-21T15:01:02;26.10;92.70
38973;DHT22;25333;50.762;4.470;2023-08-21T15:03:30;26.00;92.00
38973;DHT22;25333;50.762;4.470;2023-08-21T15:05:55;26.00;92.10
38973;DHT22;25333;50.762;4.470;2023-08-21T15:08:21;26.10;92.90
38973;DHT22;25333;50.762;4.470;2023-08-21T15:10:46;26.20;92.50
38973;DHT22;25333;50.762;4.470;2023-08-21T15:13:12;26.30;92.20
38973;DHT22;25333;50.762;4.470;2023-08-21T15:15:38;26.20;91.80
38973;DHT22;25333;50.762;4.470;2023-08-21T15:18:03;26.20;92.80
38973;DHT22;25333;50.762;4.470;2023-08-21T15:20:29;26.20;92.00
38973;DHT22;25333;50.762;4.470;2023-08-21T15:22:55;26.10;92.20
38973;DHT22;25333;50.762;4.470;2023-08-21T15:25:20;26.00;92.20
38973;DHT22;25333;50.762;4.470;2023-08-21T15:27:46;26.10;93.00
38973;DHT22;25333;50.762;4.470;2023-08-21T15:30:12;26.00;92.00